createdAt,value
2023-03-23T15:58:34.045Z,3.20
2023-03-23T16:01:08.326Z,2.85
2023-03-23T16:03:42.628Z,4.33
2023-03-23T16:06:24.535Z,3.47
2023-03-23T16:08:55.344Z,3.03
2023-03-23T16:11:26.268Z,3.85
2023-03-23T16:13:57.297Z,3.50
2023-03-23T16:16:29.308Z,4.10
2023-03-23T16:18:58.518Z,4.18
2023-03-23T16:21:28.000Z,4.00
2023-03-23T16:23:58.286Z,9.60
2023-03-23T16:26:27.481Z,10.43
2023-03-23T16:29:09.895Z,10.38
2023-03-23T16:31:42.387Z,9.65
2023-03-23T16:34:11.766Z,8.50
2023-03-23T16:36:41.436Z,6.00
2023-03-23T16:39:12.506Z,6.88
2023-03-23T16:41:42.542Z,6.13
2023-03-23T16:44:13.986Z,5.25
2023-03-23T16:46:43.174Z,4.63
2023-03-23T16:49:12.470Z,6.45
2023-03-23T16:51:43.195Z,5.18
2023-03-23T16:54:12.635Z,5.43
2023-03-23T16:56:46.232Z,8.07
2023-03-23T16:59:17.176Z,8.00
2023-03-23T17:01:46.947Z,7.55
2023-03-23T17:04:16.315Z,13.00
2023-03-23T17:06:46.399Z,5.97
2023-03-23T17:09:15.932Z,4.05
2023-03-23T17:11:45.823Z,3.28
2023-03-23T17:14:16.994Z,3.25
2023-03-23T17:16:46.538Z,4.03
2023-03-23T17:19:16.407Z,4.28
2023-03-23T17:21:45.814Z,5.82
2023-03-23T17:24:15.048Z,6.78
2023-03-23T17:26:44.587Z,6.72
2023-03-23T17:29:13.817Z,8.35
2023-03-23T17:31:44.811Z,6.80
2023-03-23T17:34:18.735Z,6.53
2023-03-23T17:36:49.008Z,6.38
2023-03-23T17:39:18.483Z,5.78
2023-03-23T17:41:47.977Z,11.50
2023-03-23T17:44:17.185Z,29.08
2023-03-23T17:46:48.447Z,25.33
2023-03-23T17:49:18.141Z,25.70
2023-03-23T17:51:47.430Z,19.83
2023-03-23T17:54:17.021Z,17.58
2023-03-23T17:56:46.353Z,19.25
2023-03-23T17:59:16.469Z,17.17
2023-03-23T18:01:47.947Z,18.75
2023-03-23T18:04:19.980Z,19.63
2023-03-23T18:06:50.527Z,18.70
2023-03-23T18:09:20.113Z,22.95
2023-03-23T18:11:49.978Z,25.17
2023-03-23T18:14:19.728Z,29.52
2023-03-23T18:16:50.512Z,26.75
2023-03-23T18:19:21.950Z,24.70
2023-03-23T18:21:51.139Z,23.90
2023-03-23T18:24:21.034Z,24.25
2023-03-23T18:26:50.319Z,24.25
2023-03-23T18:29:20.298Z,21.80
2023-03-23T18:31:50.757Z,20.42
2023-03-23T18:34:21.603Z,21.65
2023-03-23T18:36:51.204Z,18.42
2023-03-23T18:39:20.622Z,27.15
2023-03-23T18:41:50.058Z,20.85
2023-03-23T18:44:19.587Z,19.58
2023-03-23T18:46:49.041Z,19.83
2023-03-23T18:49:18.363Z,21.38
2023-03-23T18:51:49.129Z,21.60
2023-03-23T18:54:18.982Z,23.98
2023-03-23T18:56:48.254Z,26.88
2023-03-23T18:59:17.974Z,22.25
2023-03-23T19:01:47.223Z,20.83
2023-03-23T19:04:16.954Z,20.98
2023-03-23T19:06:46.502Z,21.50
2023-03-23T19:09:17.297Z,15.48
2023-03-23T19:11:47.471Z,15.07
2023-03-23T19:14:18.147Z,16.75
2023-03-23T19:16:47.495Z,16.63
2023-03-23T19:19:16.937Z,20.15
2023-03-23T19:21:47.283Z,17.73
2023-03-23T19:24:18.852Z,19.13
2023-03-23T19:26:49.039Z,19.00
2023-03-23T19:31:52.866Z,20.33
2023-03-23T19:34:24.089Z,20.10
2023-03-23T19:36:59.650Z,22.42
2023-03-23T19:39:36.952Z,24.70
2023-03-23T19:42:07.183Z,21.95
2023-03-23T19:44:37.845Z,18.35
2023-03-23T19:47:07.522Z,19.17
2023-03-23T19:49:37.251Z,20.17
2023-03-23T19:52:12.534Z,20.27
2023-03-23T19:54:43.845Z,24.00
2023-03-23T19:57:13.258Z,21.65
2023-03-23T19:59:42.988Z,23.80
2023-03-23T20:02:13.584Z,18.80
2023-03-23T20:04:43.694Z,19.75
2023-03-23T20:07:14.869Z,16.27
2023-03-23T20:09:53.349Z,15.70
2023-03-23T20:12:30.311Z,15.43
2023-03-23T20:15:15.354Z,16.48
2023-03-23T20:17:57.800Z,15.57
2023-03-23T20:20:28.119Z,13.38
2023-03-23T20:22:59.059Z,15.32
2023-03-23T20:25:30.957Z,15.35
2023-03-23T20:28:00.766Z,15.65
2023-03-23T20:30:30.390Z,15.52
2023-03-23T20:33:01.010Z,15.57
2023-03-23T20:35:31.144Z,16.35
2023-03-23T20:38:01.151Z,17.80
2023-03-23T20:40:32.820Z,17.13
2023-03-23T20:43:04.031Z,27.38
2023-03-23T20:45:33.494Z,17.10
2023-03-23T20:48:02.849Z,19.25
2023-03-23T20:50:32.421Z,16.95
2023-03-23T20:53:02.209Z,13.43
2023-03-23T20:55:33.299Z,18.70
2023-03-23T20:58:02.783Z,20.27
2023-03-23T21:00:32.207Z,21.00
2023-03-23T21:03:01.383Z,19.42
2023-03-23T21:05:30.916Z,19.95
2023-03-23T21:08:00.120Z,22.83
2023-03-23T21:10:30.738Z,24.23
2023-03-23T21:13:02.380Z,22.00
2023-03-23T21:15:34.047Z,21.58
2023-03-23T21:18:04.449Z,21.33
2023-03-23T21:20:34.566Z,24.02
2023-03-23T21:23:06.595Z,22.50
2023-03-23T21:25:38.217Z,20.10
2023-03-23T21:28:09.731Z,28.17
2023-03-23T21:30:42.000Z,21.52
2023-03-23T21:33:11.779Z,22.73
2023-03-23T21:35:41.822Z,20.60
2023-03-23T21:38:14.509Z,23.05
2023-03-23T21:40:44.287Z,26.13
2023-03-23T21:43:17.114Z,20.40
2023-03-23T21:45:47.165Z,16.50
2023-03-23T21:48:16.798Z,17.48
2023-03-23T21:50:46.314Z,17.75
2023-03-23T21:53:18.515Z,17.55
2023-03-23T21:55:51.670Z,16.85
2023-03-23T21:58:24.631Z,24.40
2023-03-23T22:00:56.581Z,24.63
2023-03-23T22:03:27.246Z,29.15
2023-03-23T22:05:56.690Z,23.40
2023-03-23T22:08:28.729Z,22.77
2023-03-23T22:11:03.185Z,30.33
2023-03-23T22:13:36.079Z,26.25
2023-03-23T22:16:08.520Z,30.23
2023-03-23T22:18:38.384Z,24.70
2023-03-23T22:21:08.966Z,25.23
2023-03-23T22:23:38.264Z,27.30
2023-03-23T22:26:08.786Z,28.23
2023-03-23T22:28:40.537Z,28.00
2023-03-23T22:31:13.441Z,22.27
2023-03-23T22:33:42.757Z,23.17
2023-03-23T22:36:12.842Z,18.45
2023-03-23T22:38:44.566Z,22.30
2023-03-23T22:41:18.778Z,21.40
2023-03-23T22:43:50.772Z,19.77
2023-03-23T22:46:20.364Z,16.23
2023-03-23T22:48:49.740Z,16.02
2023-03-23T22:51:20.833Z,15.48
2023-03-23T22:53:50.753Z,15.57
2023-03-23T22:56:20.699Z,14.40
2023-03-23T22:58:52.268Z,14.68
2023-03-23T23:01:23.667Z,13.93
2023-03-23T23:03:53.047Z,15.98
2023-03-23T23:06:22.754Z,13.77
2023-03-23T23:08:53.064Z,17.17
2023-03-23T23:11:24.387Z,17.00
2023-03-23T23:13:55.804Z,18.02
2023-03-23T23:16:27.780Z,22.08
2023-03-23T23:18:57.812Z,17.40
2023-03-23T23:21:29.171Z,17.70
2023-03-23T23:23:59.046Z,13.13
2023-03-23T23:26:28.336Z,12.38
2023-03-23T23:28:59.421Z,13.55
2023-03-23T23:31:33.708Z,12.82
2023-03-23T23:34:22.399Z,15.00
2023-03-23T23:36:52.207Z,16.50
2023-03-23T23:39:21.660Z,17.83
2023-03-23T23:41:51.361Z,18.10
2023-03-23T23:44:22.255Z,19.98
2023-03-23T23:46:51.890Z,24.77
2023-03-23T23:49:23.185Z,25.85
2023-03-23T23:51:52.546Z,20.48
2023-03-23T23:54:30.250Z,17.90
2023-03-23T23:57:00.017Z,16.77
2023-03-23T23:59:32.983Z,15.18
